createdAt,value
2019-03-20T00:00:43.090Z,24.57
2019-03-20T00:03:14.691Z,26.02
2019-03-20T00:05:46.340Z,26.20
2019-03-20T00:08:18.047Z,26.73
2019-03-20T00:10:49.643Z,26.80
2019-03-20T00:13:21.398Z,26.73
2019-03-20T00:15:53.259Z,28.85
2019-03-20T00:18:25.016Z,27.52
2019-03-20T00:20:56.565Z,23.62
2019-03-20T00:23:29.046Z,26.65
2019-03-20T00:26:00.388Z,22.62
2019-03-20T00:28:32.251Z,23.38
2019-03-20T00:31:04.011Z,22.20
2019-03-20T00:33:35.665Z,22.48
2019-03-20T00:36:07.527Z,21.97
2019-03-20T00:38:39.386Z,21.30
2019-03-20T00:41:11.040Z,21.57
2019-03-20T00:43:42.801Z,19.55
2019-03-20T00:46:14.410Z,21.48
2019-03-20T00:48:46.316Z,19.80
2019-03-20T00:51:17.973Z,19.80
2019-03-20T00:53:49.728Z,21.23
2019-03-20T00:56:21.490Z,20.08
2019-03-20T00:58:53.249Z,21.95
2019-03-20T01:01:25.107Z,21.97
2019-03-20T01:03:56.866Z,22.65
2019-03-20T01:06:28.453Z,21.93
2019-03-20T01:09:00.029Z,23.73
2019-03-20T01:11:31.629Z,26.57
2019-03-20T01:14:03.393Z,23.10
2019-03-20T01:16:35.101Z,22.65
2019-03-20T01:19:06.801Z,23.07
2019-03-20T01:21:39.375Z,22.98
2019-03-20T01:24:11.135Z,22.58
2019-03-20T01:26:42.894Z,23.07
2019-03-20T01:29:14.343Z,25.82
2019-03-20T01:31:45.985Z,27.20
2019-03-20T01:34:17.662Z,27.27
2019-03-20T01:36:49.367Z,25.40
2019-03-20T01:39:21.189Z,27.93
2019-03-20T01:41:52.928Z,26.12
2019-03-20T01:44:24.710Z,26.65
2019-03-20T01:46:56.558Z,26.52
2019-03-20T01:49:28.203Z,25.45
2019-03-20T01:52:00.063Z,26.35
2019-03-20T01:54:31.626Z,24.37
2019-03-20T01:57:03.194Z,23.98
2019-03-20T01:59:35.041Z,22.15
2019-03-20T02:02:06.788Z,23.52
2019-03-20T02:04:38.487Z,22.75
2019-03-20T02:07:10.200Z,24.32
2019-03-20T02:09:42.779Z,21.23
2019-03-20T02:12:14.386Z,23.10
2019-03-20T02:14:46.089Z,24.82
2019-03-20T02:17:17.775Z,21.70
2019-03-20T02:19:49.401Z,23.42
2019-03-20T02:22:21.164Z,22.15
2019-03-20T02:24:52.922Z,23.95
2019-03-20T02:27:24.674Z,22.65
2019-03-20T02:29:56.198Z,23.27
2019-03-20T02:32:27.577Z,23.10
2019-03-20T02:34:59.503Z,22.27
2019-03-20T02:37:31.031Z,22.73
2019-03-20T02:40:02.976Z,22.22
2019-03-20T02:42:34.514Z,22.35
2019-03-20T02:45:08.914Z,22.35
2019-03-20T02:47:40.584Z,21.70
2019-03-20T02:50:13.169Z,22.45
2019-03-20T02:52:45.236Z,20.52
2019-03-20T02:55:17.909Z,21.65
2019-03-20T02:57:49.772Z,22.55
2019-03-20T03:00:21.752Z,22.35
2019-03-20T03:02:53.290Z,22.65
2019-03-20T03:05:24.942Z,20.52
2019-03-20T03:07:56.652Z,20.75
2019-03-20T03:10:28.256Z,22.27
2019-03-20T03:13:00.162Z,22.13
2019-03-20T03:15:31.870Z,21.52
2019-03-20T03:18:03.533Z,23.25
2019-03-20T03:20:35.386Z,22.20
2019-03-20T03:23:07.042Z,23.47
2019-03-20T03:25:38.730Z,22.07
2019-03-20T03:28:10.352Z,24.07
2019-03-20T03:30:42.115Z,22.80
2019-03-20T03:33:13.831Z,22.07
2019-03-20T03:35:45.936Z,22.90
2019-03-20T03:38:17.696Z,24.37
2019-03-20T03:40:49.373Z,24.45
2019-03-20T03:43:24.072Z,23.92
2019-03-20T03:45:54.312Z,22.67
2019-03-20T03:48:25.824Z,23.27
2019-03-20T03:50:57.290Z,23.40
2019-03-20T03:53:29.060Z,24.72
2019-03-20T03:56:00.718Z,25.12
2019-03-20T03:58:32.894Z,27.58
2019-03-20T04:01:04.441Z,25.47
2019-03-20T04:03:36.297Z,24.07
2019-03-20T04:06:07.947Z,24.75
2019-03-20T04:08:39.715Z,24.63
2019-03-20T04:11:11.780Z,24.60
2019-03-20T04:16:14.970Z,24.63
2019-03-20T04:18:46.754Z,27.52
2019-03-20T04:21:18.810Z,26.40
2019-03-20T04:23:51.183Z,30.35
2019-03-20T04:26:22.937Z,32.63
2019-03-20T04:28:54.593Z,31.52
2019-03-20T04:31:26.254Z,31.10
2019-03-20T04:33:58.007Z,27.80
2019-03-20T04:36:29.595Z,30.20
2019-03-20T04:39:01.220Z,28.55
2019-03-20T04:41:33.823Z,31.30
2019-03-20T04:44:05.655Z,30.52
2019-03-20T04:46:37.310Z,31.27
2019-03-20T04:49:09.067Z,33.40
2019-03-20T04:51:41.129Z,31.10
2019-03-20T04:54:12.791Z,30.37
2019-03-20T04:56:44.649Z,31.50
2019-03-20T04:59:16.310Z,32.33
2019-03-20T05:01:48.165Z,32.15
2019-03-20T05:04:19.819Z,31.82
2019-03-20T05:06:58.837Z,31.57
2019-03-20T05:09:24.665Z,31.30
2019-03-20T05:11:56.330Z,34.00
2019-03-20T05:14:28.087Z,30.68
2019-03-20T05:16:59.739Z,30.32
2019-03-20T05:19:31.498Z,30.02
2019-03-20T05:22:03.359Z,30.30
2019-03-20T05:24:35.990Z,32.13
2019-03-20T05:27:07.587Z,30.80
2019-03-20T05:29:39.515Z,32.08
2019-03-20T05:32:11.206Z,31.75
2019-03-20T05:34:43.069Z,29.45
2019-03-20T05:37:14.725Z,30.97
2019-03-20T05:39:46.588Z,29.90
2019-03-20T05:42:18.141Z,28.12
2019-03-20T05:44:49.894Z,27.58
2019-03-20T05:47:21.454Z,27.95
2019-03-20T05:49:53.109Z,26.12
2019-03-20T05:52:24.822Z,26.20
2019-03-20T05:54:56.416Z,29.07
2019-03-20T05:57:28.276Z,30.12
2019-03-20T06:00:00.036Z,28.38
2019-03-20T06:05:03.536Z,27.27
2019-03-20T06:07:35.106Z,28.17
2019-03-20T06:10:09.864Z,29.55
2019-03-20T06:12:42.305Z,28.10
2019-03-20T06:15:14.788Z,28.90
2019-03-20T06:17:47.140Z,26.42
2019-03-20T06:20:18.710Z,26.55
2019-03-20T06:22:50.262Z,27.90
2019-03-20T06:25:21.931Z,28.67
2019-03-20T06:27:53.867Z,29.37
2019-03-20T06:30:25.646Z,29.10
2019-03-20T06:32:59.699Z,27.70
2019-03-20T06:35:32.535Z,26.07
2019-03-20T06:38:04.191Z,28.42
2019-03-20T06:40:36.061Z,29.45
2019-03-20T06:43:07.817Z,28.90
2019-03-20T06:45:40.526Z,28.42
2019-03-20T06:48:11.925Z,30.02
2019-03-20T06:50:43.697Z,30.52
2019-03-20T06:53:15.008Z,30.40
2019-03-20T06:55:46.558Z,29.02
2019-03-20T06:58:18.678Z,28.35
2019-03-20T07:01:04.964Z,27.20
2019-03-20T07:03:49.009Z,27.40
2019-03-20T07:06:46.090Z,26.62
2019-03-20T07:09:32.697Z,27.75
2019-03-20T07:12:04.457Z,27.05
2019-03-20T07:14:36.186Z,30.62
2019-03-20T07:17:08.165Z,28.40
2019-03-20T07:19:40.318Z,24.82
2019-03-20T07:22:12.383Z,27.40
2019-03-20T07:24:44.341Z,25.93
2019-03-20T07:27:16.100Z,26.33
2019-03-20T07:29:47.682Z,25.88
2019-03-20T07:32:19.326Z,27.65
2019-03-20T07:34:51.049Z,28.30
2019-03-20T07:37:22.830Z,23.00
2019-03-20T07:39:54.585Z,23.77
2019-03-20T07:42:26.363Z,19.05
2019-03-20T07:44:58.098Z,18.73
2019-03-20T07:47:29.801Z,20.32
2019-03-20T07:50:01.437Z,21.57
2019-03-20T07:52:33.178Z,15.28
2019-03-20T07:55:05.645Z,15.20
2019-03-20T07:57:37.300Z,14.78
2019-03-20T08:00:12.437Z,15.72
2019-03-20T08:02:43.711Z,18.55
2019-03-20T08:05:15.236Z,23.98
2019-03-20T08:07:46.903Z,16.97
2019-03-20T08:10:23.049Z,15.68
2019-03-20T08:12:54.403Z,27.70
2019-03-20T08:15:25.777Z,27.13
2019-03-20T08:17:57.200Z,24.12
2019-03-20T08:20:29.885Z,21.35
2019-03-20T08:23:01.886Z,18.92
2019-03-20T08:25:34.420Z,20.62
2019-03-20T08:28:06.509Z,19.15
2019-03-20T08:30:38.250Z,20.10
2019-03-20T08:33:10.005Z,23.40
2019-03-20T08:35:42.584Z,24.10
2019-03-20T08:38:18.660Z,21.25
2019-03-20T08:40:47.467Z,17.98
2019-03-20T08:43:19.282Z,17.35
2019-03-20T08:45:51.043Z,16.55
2019-03-20T08:48:22.701Z,16.37
2019-03-20T08:50:54.039Z,18.60
2019-03-20T08:53:25.398Z,18.70
2019-03-20T08:55:58.102Z,17.42
2019-03-20T08:58:29.800Z,19.87
2019-03-20T09:01:04.464Z,17.12
2019-03-20T09:03:35.870Z,19.40
2019-03-20T09:06:07.603Z,18.25
2019-03-20T09:08:39.021Z,17.67
2019-03-20T09:11:10.442Z,19.48
2019-03-20T09:13:41.826Z,18.92
2019-03-20T09:16:13.216Z,19.95
2019-03-20T09:18:44.508Z,19.00
2019-03-20T09:21:15.830Z,18.45
2019-03-20T09:23:47.147Z,19.70
2019-03-20T09:26:18.663Z,19.73
2019-03-20T09:28:51.096Z,21.07
2019-03-20T09:31:23.927Z,20.87
2019-03-20T09:33:55.419Z,19.48
2019-03-20T09:36:27.157Z,18.82
2019-03-20T09:38:58.649Z,18.90
2019-03-20T09:41:30.324Z,17.92
2019-03-20T09:44:02.523Z,18.25
2019-03-20T09:46:34.434Z,18.57
2019-03-20T09:49:06.134Z,17.85
2019-03-20T09:51:37.886Z,18.48
2019-03-20T09:54:09.749Z,19.98
2019-03-20T09:56:41.024Z,23.45
2019-03-20T09:59:12.577Z,25.20
2019-03-20T10:01:43.917Z,24.43
2019-03-20T10:04:15.249Z,22.30
2019-03-20T10:06:46.590Z,22.27
2019-03-20T10:09:20.676Z,20.37
2019-03-20T10:11:52.059Z,18.50
2019-03-20T10:14:24.085Z,17.42
2019-03-20T10:16:55.414Z,17.30
2019-03-20T10:19:26.773Z,16.45
2019-03-20T10:21:58.132Z,16.80
2019-03-20T10:24:30.421Z,16.00
2019-03-20T10:27:01.659Z,15.58
2019-03-20T10:29:33.576Z,16.17
2019-03-20T10:32:05.048Z,14.07
2019-03-20T10:34:39.632Z,14.28
2019-03-20T10:37:09.699Z,13.95
2019-03-20T10:39:41.081Z,14.63
2019-03-20T10:42:12.351Z,13.78
2019-03-20T10:44:43.912Z,14.75
2019-03-20T10:47:15.168Z,15.03
2019-03-20T10:49:46.636Z,16.70
2019-03-20T10:52:18.140Z,16.85
2019-03-20T10:54:49.823Z,18.77
2019-03-20T10:57:21.134Z,18.70
2019-03-20T10:59:52.846Z,18.70
2019-03-20T11:02:24.421Z,18.07
2019-03-20T11:04:55.901Z,17.25
2019-03-20T11:07:27.789Z,17.35
2019-03-20T11:09:59.415Z,17.35
2019-03-20T11:12:31.085Z,18.12
2019-03-20T11:15:02.855Z,18.35
2019-03-20T11:17:34.450Z,15.43
2019-03-20T11:20:08.415Z,15.18
2019-03-20T11:22:40.183Z,15.75
2019-03-20T11:25:24.833Z,15.45
2019-03-20T11:27:56.191Z,15.85
2019-03-20T11:30:34.065Z,14.70
2019-03-20T11:33:06.026Z,14.05
2019-03-20T11:35:37.889Z,11.63
2019-03-20T11:38:10.155Z,13.08
2019-03-20T11:40:42.378Z,11.90
2019-03-20T11:43:14.186Z,10.90
2019-03-20T11:45:47.359Z,12.13
2019-03-20T11:48:19.555Z,12.53
2019-03-20T11:50:51.718Z,13.73
2019-03-20T11:53:23.470Z,14.58
2019-03-20T11:55:55.126Z,15.93
2019-03-20T11:58:26.893Z,15.32
2019-03-20T12:00:58.595Z,16.65
2019-03-20T12:03:29.855Z,17.30
2019-03-20T12:06:01.117Z,17.60
2019-03-20T12:08:32.471Z,21.77
2019-03-20T12:11:03.897Z,20.43
2019-03-20T12:13:35.728Z,20.75
2019-03-20T12:16:07.261Z,23.02
2019-03-20T12:18:40.390Z,20.77
2019-03-20T12:21:11.651Z,21.00
2019-03-20T12:23:43.034Z,23.12
2019-03-20T12:26:14.808Z,25.50
2019-03-20T12:28:46.147Z,23.80
2019-03-20T12:31:17.518Z,21.35
2019-03-20T12:33:48.924Z,23.52
2019-03-20T12:36:20.275Z,22.50
2019-03-20T12:38:51.733Z,21.87
2019-03-20T12:41:23.597Z,21.87
2019-03-20T12:43:54.789Z,22.13
2019-03-20T12:46:26.128Z,22.62
2019-03-20T12:48:59.704Z,23.83
2019-03-20T12:51:31.867Z,23.52
2019-03-20T12:54:03.155Z,24.52
2019-03-20T12:59:08.569Z,24.82
2019-03-20T13:01:40.384Z,25.12
2019-03-20T13:04:12.205Z,24.02
2019-03-20T13:06:43.849Z,23.60
2019-03-20T13:09:15.606Z,23.70
2019-03-20T13:11:47.302Z,23.25
2019-03-20T13:14:18.582Z,26.25
2019-03-20T13:16:49.938Z,26.62
2019-03-20T13:19:24.259Z,26.10
2019-03-20T13:21:55.615Z,28.47
2019-03-20T13:24:27.015Z,28.60
2019-03-20T13:26:59.752Z,26.75
2019-03-20T13:29:31.089Z,27.05
2019-03-20T13:32:03.747Z,26.33
2019-03-20T13:34:35.897Z,27.80
2019-03-20T13:37:08.362Z,26.82
2019-03-20T13:39:39.922Z,24.85
2019-03-20T13:42:12.347Z,26.20
2019-03-20T13:44:43.744Z,24.07
2019-03-20T13:47:15.109Z,24.80
2019-03-20T13:49:46.950Z,23.87
2019-03-20T14:22:20.744Z,23.90
2019-03-20T14:24:52.286Z,24.15
2019-03-20T14:27:23.601Z,23.75
2019-03-20T14:29:54.980Z,24.10
2019-03-20T14:32:26.384Z,23.77
2019-03-20T14:34:58.089Z,23.65
2019-03-20T14:37:29.468Z,23.27
2019-03-20T14:40:01.696Z,22.13
2019-03-20T14:42:33.102Z,22.67
2019-03-20T14:45:05.322Z,24.23
2019-03-20T14:47:42.042Z,23.05
2019-03-20T14:50:14.504Z,24.07
2019-03-20T14:52:52.139Z,25.97
2019-03-20T14:55:23.524Z,25.75
2019-03-20T14:57:54.848Z,25.40
2019-03-20T15:00:31.114Z,25.32
2019-03-20T15:03:02.494Z,36.88
2019-03-20T15:05:33.941Z,28.80
2019-03-20T15:08:05.323Z,31.65
2019-03-20T15:10:48.887Z,29.32
2019-03-20T15:13:20.343Z,28.55
2019-03-20T15:15:55.576Z,28.75
2019-03-20T15:18:27.051Z,27.73
2019-03-20T15:20:58.766Z,27.35
2019-03-20T15:23:30.219Z,26.62
2019-03-20T15:26:01.419Z,30.60
2019-03-20T15:28:32.773Z,32.70
2019-03-20T15:31:04.115Z,30.20
2019-03-20T15:33:35.667Z,29.90
2019-03-20T15:36:07.150Z,30.77
2019-03-20T15:38:38.512Z,31.02
2019-03-20T15:41:09.890Z,30.08
2019-03-20T15:43:41.255Z,31.77
2019-03-20T15:46:12.580Z,31.20
2019-03-20T15:48:44.174Z,32.95
2019-03-20T15:51:15.710Z,32.05
2019-03-20T15:53:47.506Z,32.63
2019-03-20T15:56:19.042Z,32.90
2019-03-20T15:58:50.371Z,34.53
2019-03-20T16:01:21.730Z,35.35
2019-03-20T16:03:53.053Z,33.20
2019-03-20T16:06:24.447Z,32.08
2019-03-20T16:08:56.909Z,33.18
2019-03-20T16:11:28.609Z,33.60
2019-03-20T16:13:59.777Z,34.92
2019-03-20T16:16:31.232Z,32.50
2019-03-20T16:19:02.612Z,32.10
2019-03-20T16:21:33.944Z,33.00
2019-03-20T16:24:06.596Z,34.10
2019-03-20T16:26:38.009Z,32.65
2019-03-20T16:29:09.316Z,33.30
2019-03-20T16:31:40.656Z,33.48
2019-03-20T16:34:12.163Z,33.05
2019-03-20T16:36:43.638Z,34.65
2019-03-20T16:39:14.905Z,38.40
2019-03-20T16:41:46.577Z,35.05
2019-03-20T16:44:17.953Z,44.58
2019-03-20T16:46:49.278Z,39.70
2019-03-20T16:49:20.689Z,33.60
2019-03-20T16:51:51.995Z,31.60
2019-03-20T16:54:25.334Z,31.10
2019-03-20T16:56:56.439Z,28.75
2019-03-20T16:59:27.753Z,29.87
2019-03-20T17:01:59.069Z,28.47
2019-03-20T17:04:30.439Z,29.52
2019-03-20T17:07:01.765Z,37.58
2019-03-20T17:09:33.223Z,37.80
2019-03-20T17:12:04.603Z,33.95
2019-03-20T17:14:35.927Z,31.62
2019-03-20T17:17:07.289Z,31.30
2019-03-20T17:19:38.659Z,31.00
2019-03-20T17:22:09.974Z,31.25
2019-03-20T17:24:41.326Z,28.42
2019-03-20T17:27:12.693Z,27.37
2019-03-20T17:29:44.127Z,26.42
2019-03-20T17:32:15.649Z,28.95
2019-03-20T17:34:46.912Z,27.25
2019-03-20T17:37:18.382Z,27.40
2019-03-20T17:39:49.671Z,27.15
2019-03-20T17:42:21.000Z,28.23
2019-03-20T17:44:52.325Z,26.93
2019-03-20T17:47:23.652Z,26.82
2019-03-20T17:49:55.070Z,26.90
2019-03-20T17:52:26.377Z,27.55
2019-03-20T17:54:57.668Z,27.02
2019-03-20T17:57:28.967Z,28.20
2019-03-20T18:00:00.332Z,37.30
2019-03-20T18:02:31.900Z,31.75
2019-03-20T18:05:03.576Z,26.37
2019-03-20T18:07:34.847Z,25.85
2019-03-20T18:10:06.693Z,27.82
2019-03-20T18:12:37.856Z,28.70
2019-03-20T18:15:12.489Z,28.85
2019-03-20T18:17:43.783Z,27.35
2019-03-20T18:20:20.213Z,25.20
2019-03-20T18:22:51.508Z,26.73
2019-03-20T18:25:22.841Z,25.60
2019-03-20T18:27:54.166Z,26.37
2019-03-20T18:30:28.139Z,25.52
2019-03-20T18:32:59.860Z,24.90
2019-03-20T18:35:31.177Z,23.73
2019-03-20T18:38:02.676Z,21.73
2019-03-20T18:40:33.857Z,24.25
2019-03-20T18:43:05.185Z,23.02
2019-03-20T18:45:36.570Z,20.92
2019-03-20T18:48:07.887Z,22.00
2019-03-20T18:50:39.273Z,23.60
2019-03-20T18:53:10.607Z,22.42
2019-03-20T18:55:41.954Z,21.90
2019-03-20T18:58:14.228Z,21.80
2019-03-20T19:00:45.461Z,21.45
2019-03-20T19:03:19.997Z,23.73
2019-03-20T19:05:57.418Z,23.07
2019-03-20T19:08:28.845Z,23.87
2019-03-20T19:11:00.368Z,23.55
2019-03-20T19:13:31.647Z,22.13
2019-03-20T19:16:02.998Z,23.22
2019-03-20T19:18:34.337Z,22.22
2019-03-20T19:21:05.690Z,19.17
2019-03-20T19:23:37.054Z,17.98
2019-03-20T19:26:08.518Z,17.35
2019-03-20T19:28:39.846Z,16.45
2019-03-20T19:31:11.180Z,17.35
2019-03-20T19:33:42.496Z,17.45
2019-03-20T19:36:13.742Z,14.85
2019-03-20T19:38:45.165Z,13.38
2019-03-20T19:41:16.479Z,13.53
2019-03-20T19:43:47.794Z,12.80
2019-03-20T19:46:19.062Z,12.37
2019-03-20T19:48:50.484Z,12.30
2019-03-20T19:51:21.773Z,12.60
2019-03-20T19:53:53.172Z,12.28
2019-03-20T19:56:24.421Z,13.55
2019-03-20T19:58:55.784Z,13.68
2019-03-20T20:01:27.245Z,12.15
2019-03-20T20:03:58.656Z,12.68
2019-03-20T20:06:29.984Z,12.65
2019-03-20T20:09:01.337Z,12.15
2019-03-20T20:14:04.664Z,11.05
2019-03-20T20:16:36.015Z,11.00
2019-03-20T20:19:07.377Z,11.95
2019-03-20T20:21:38.668Z,11.95
2019-03-20T20:24:09.987Z,11.70
2019-03-20T20:26:41.354Z,10.38
2019-03-20T20:29:13.881Z,12.28
2019-03-20T20:31:45.149Z,9.90
2019-03-20T20:34:16.362Z,9.65
2019-03-20T20:36:47.622Z,9.20
2019-03-20T20:39:18.830Z,9.23
2019-03-20T20:41:50.110Z,10.05
2019-03-20T20:44:21.430Z,9.15
2019-03-20T20:46:52.612Z,9.63
2019-03-20T20:49:23.823Z,9.28
2019-03-20T20:51:54.966Z,8.75
2019-03-20T20:54:26.173Z,8.85
2019-03-20T20:56:57.263Z,10.28
2019-03-20T20:59:28.520Z,9.45
2019-03-20T21:01:59.812Z,10.35
2019-03-20T21:04:31.378Z,9.70
2019-03-20T21:07:02.664Z,9.73
2019-03-20T21:09:33.800Z,10.63
2019-03-20T21:12:05.106Z,10.90
2019-03-20T21:14:36.330Z,9.48
2019-03-20T21:17:10.694Z,10.25
2019-03-20T21:19:43.170Z,10.23
2019-03-20T21:22:32.779Z,9.35
2019-03-20T21:25:04.050Z,8.73
2019-03-20T21:28:13.401Z,8.65
2019-03-20T21:30:53.677Z,8.95
2019-03-20T21:33:36.819Z,8.53
2019-03-20T21:36:33.811Z,8.58
2019-03-20T21:39:07.113Z,9.25
2019-03-20T21:41:53.482Z,9.03
2019-03-20T21:44:57.959Z,9.08
2019-03-20T21:47:35.890Z,8.93
2019-03-20T21:50:26.928Z,9.58
2019-03-20T21:52:58.273Z,10.32
2019-03-20T21:55:49.115Z,10.28
2019-03-20T21:58:23.533Z,10.13
2019-03-20T22:01:10.365Z,10.63
2019-03-20T22:03:43.778Z,10.70
2019-03-20T22:08:46.742Z,9.68
2019-03-20T22:11:33.333Z,10.05
2019-03-20T22:14:07.811Z,10.05
2019-03-20T22:16:58.475Z,10.38
2019-03-20T22:19:44.776Z,10.15
2019-03-20T22:22:39.045Z,9.88
2019-03-20T22:25:33.013Z,10.65
2019-03-20T22:28:23.675Z,11.12
2019-03-20T22:30:55.019Z,10.25
2019-03-20T22:34:03.478Z,10.23
2019-03-20T22:36:35.372Z,10.15
2019-03-20T22:39:12.592Z,11.30
2019-03-20T22:42:05.019Z,11.55
2019-03-20T22:44:38.096Z,11.30
2019-03-20T22:47:33.499Z,11.50
2019-03-20T22:50:17.137Z,11.45
2019-03-20T22:53:10.972Z,11.55
2019-03-20T22:55:54.093Z,10.00
2019-03-20T23:01:01.196Z,9.00
2019-03-20T23:03:37.014Z,10.08
2019-03-20T23:06:08.377Z,9.68
2019-03-20T23:08:40.129Z,8.60
2019-03-20T23:11:11.289Z,9.55
2019-03-20T23:13:42.519Z,9.13
2019-03-20T23:16:16.100Z,9.00
2019-03-20T23:18:47.354Z,8.30
2019-03-20T23:21:18.559Z,9.28
2019-03-20T23:23:49.659Z,7.97
2019-03-20T23:26:20.867Z,8.08
2019-03-20T23:28:52.196Z,8.40
2019-03-20T23:31:23.436Z,8.08
2019-03-20T23:33:54.593Z,7.80
2019-03-20T23:36:26.674Z,7.97
2019-03-20T23:38:57.753Z,8.43
2019-03-20T23:41:28.881Z,7.75
2019-03-20T23:44:01.082Z,8.43
2019-03-20T23:46:32.423Z,8.65
2019-03-20T23:49:09.664Z,8.60
2019-03-20T23:51:40.928Z,9.25
2019-03-20T23:54:13.514Z,8.90
2019-03-20T23:56:44.611Z,9.53
2019-03-20T23:59:15.773Z,9.03
